Time;durP1;ratioP1;P1;durP2;ratioP2;P2;SDS_P1;SDS_P2;PMS_P1;PMS_P2;Temp;Humidity;BMP_temperature;BMP_pressure;BME280_temperature;BME280_humidity;BME280_pressure;Samples;Min_cycle;Max_cycle;Signal;HPM_P1;HPM_P2
2021/06/18 00:01:14;;;;;;;6.63;5.15;;;19.80;71.30;;;;;;5030436;28;20044;-70
2021/06/18 00:03:40;;;;;;;7.90;5.30;;;19.90;70.70;;;;;;5047919;28;20049;-70
2021/06/18 00:06:05;;;;;;;7.60;5.07;;;19.90;70.80;;;;;;5047268;28;20053;-69
2021/06/18 00:08:31;;;;;;;6.78;5.45;;;19.80;70.70;;;;;;5047396;28;20079;-69
2021/06/18 00:10:56;;;;;;;7.55;5.20;;;19.80;71.20;;;;;;5047160;28;20228;-68
2021/06/18 00:13:22;;;;;;;8.80;5.55;;;19.70;70.90;;;;;;5047633;28;20335;-70
2021/06/18 00:15:47;;;;;;;5.63;4.82;;;19.80;70.60;;;;;;5029980;28;20037;-69
2021/06/18 00:18:14;;;;;;;11.65;5.63;;;19.80;70.30;;;;;;5047040;28;20049;-70
2021/06/18 00:20:39;;;;;;;6.95;4.93;;;19.70;71.00;;;;;;5047020;28;20090;-69
2021/06/18 00:23:05;;;;;;;9.40;5.72;;;19.70;71.50;;;;;;5047190;28;20036;-69
2021/06/18 00:25:30;;;;;;;7.95;5.07;;;19.60;71.60;;;;;;5047989;28;20017;-70
2021/06/18 00:27:56;;;;;;;7.75;5.68;;;19.60;71.50;;;;;;5046993;28;20038;-69
2021/06/18 00:30:22;;;;;;;6.30;5.10;;;19.50;71.70;;;;;;5046631;28;20075;-70
2021/06/18 00:32:48;;;;;;;6.85;5.50;;;19.40;72.20;;;;;;5029519;28;20224;-70
2021/06/18 00:35:13;;;;;;;6.55;4.93;;;19.40;71.60;;;;;;5046712;28;20039;-69
2021/06/18 00:37:39;;;;;;;7.68;5.43;;;19.50;71.30;;;;;;5047501;28;20028;-69
2021/06/18 00:40:05;;;;;;;9.23;5.50;;;19.50;71.30;;;;;;5028849;28;20041;-70
2021/06/18 00:42:30;;;;;;;7.32;5.28;;;19.30;71.90;;;;;;5047117;28;20040;-69
2021/06/18 00:44:56;;;;;;;7.03;5.20;;;19.30;72.60;;;;;;5046982;28;20030;-69
2021/06/18 00:47:22;;;;;;;7.40;5.70;;;19.30;72.40;;;;;;5046532;28;20052;-69
2021/06/18 00:49:48;;;;;;;9.50;5.38;;;19.30;72.50;;;;;;5030073;28;20308;-69
2021/06/18 00:52:15;;;;;;;7.68;5.53;;;19.30;72.70;;;;;;5046938;28;20035;-69
2021/06/18 00:54:42;;;;;;;8.25;5.75;;;19.30;73.00;;;;;;5028974;28;20079;-69
2021/06/18 00:57:08;;;;;;;6.68;5.43;;;19.30;72.30;;;;;;5029443;28;20364;-69
2021/06/18 00:59:33;;;;;;;6.40;5.20;;;19.30;72.20;;;;;;5028754;28;20053;-69
2021/06/18 01:01:59;;;;;;;6.13;5.20;;;19.20;73.00;;;;;;5045175;28;20021;-69
2021/06/18 01:04:25;;;;;;;7.43;5.50;;;19.10;73.10;;;;;;5046696;28;20061;-69
2021/06/18 01:07:10;;;;;;;5.75;5.15;;;19.20;72.50;;;;;;5029244;28;20037;-69
2021/06/18 01:09:47;;;;;;;8.50;4.85;;;19.30;72.40;;;;;;5046147;28;20393;-69
2021/06/18 01:12:15;;;;;;;9.77;5.30;;;19.10;72.90;;;;;;5013661;28;20345;-69
2021/06/18 01:14:47;;;;;;;5.65;5.05;;;19.10;72.40;;;;;;5012416;28;20089;-70
2021/06/18 01:18:00;;;;;;;5.78;4.95;;;19.10;72.30;;;;;;5012886;28;20036;-68
2021/06/18 01:20:49;;;;;;;8.00;5.40;;;19.20;72.10;;;;;;5027472;28;20091;-68
2021/06/18 01:23:29;;;;;;;8.30;5.18;;;19.10;72.00;;;;;;5045875;28;20044;-68
2021/06/18 01:26:06;;;;;;;8.32;5.07;;;19.00;72.20;;;;;;5046311;28;20037;-69
2021/06/18 01:28:46;;;;;;;6.97;5.50;;;19.00;72.30;;;;;;5029263;28;20041;-69
2021/06/18 01:31:14;;;;;;;9.88;5.50;;;19.00;72.20;;;;;;5046282;28;20061;-69
2021/06/18 01:33:40;;;;;;;6.78;5.57;;;18.90;72.00;;;;;;5028463;28;20041;-69
2021/06/18 01:36:06;;;;;;;6.18;5.10;;;19.00;71.90;;;;;;5028439;28;20033;-69
2021/06/18 01:38:33;;;;;;;5.75;5.10;;;19.00;72.30;;;;;;5028184;28;20036;-68
2021/06/18 01:41:01;;;;;;;7.40;5.13;;;18.90;72.40;;;;;;5012762;28;20193;-68
2021/06/18 01:43:28;;;;;;;7.95;5.43;;;18.80;72.70;;;;;;5028757;28;20059;-69
2021/06/18 01:45:54;;;;;;;8.05;5.50;;;18.80;72.80;;;;;;5012632;28;20038;-69
2021/06/18 01:48:20;;;;;;;6.43;5.20;;;18.80;72.90;;;;;;5011890;28;20100;-69
2021/06/18 01:50:46;;;;;;;5.75;5.13;;;18.70;73.10;;;;;;5012083;28;20135;-69
2021/06/18 01:53:15;;;;;;;7.50;5.30;;;18.80;72.60;;;;;;5011687;28;20021;-69
2021/06/18 01:55:41;;;;;;;7.28;5.28;;;18.80;72.70;;;;;;5046331;28;20029;-69
2021/06/18 01:58:07;;;;;;;6.85;5.03;;;18.80;72.40;;;;;;5045711;28;20040;-69
2021/06/18 02:00:34;;;;;;;5.65;4.80;;;18.80;72.50;;;;;;5027910;28;20033;-69
2021/06/18 02:03:00;;;;;;;7.20;5.32;;;18.70;72.60;;;;;;5028049;28;20081;-69
2021/06/18 02:05:26;;;;;;;7.15;5.10;;;18.70;73.10;;;;;;5011514;28;20088;-68
2021/06/18 02:07:52;;;;;;;7.72;5.55;;;18.60;73.20;;;;;;5028281;28;20029;-68
2021/06/18 02:10:17;;;;;;;7.13;5.28;;;18.50;73.30;;;;;;4994870;28;20042;-68
2021/06/18 02:12:43;;;;;;;7.07;4.90;;;18.70;72.50;;;;;;5044747;28;20259;-68
2021/06/18 02:15:09;;;;;;;5.88;5.20;;;18.70;72.60;;;;;;5010748;28;20084;-69
2021/06/18 02:17:35;;;;;;;9.15;6.90;;;18.80;73.00;;;;;;5045054;28;20097;-68
2021/06/18 02:20:01;;;;;;;9.43;5.32;;;18.80;72.60;;;;;;5027260;28;20300;-68
2021/06/18 02:22:26;;;;;;;7.22;5.78;;;19.20;71.30;;;;;;5028000;28;20052;-68
2021/06/18 02:24:52;;;;;;;7.05;5.25;;;19.30;69.80;;;;;;5045193;28;20222;-68
2021/06/18 02:27:17;;;;;;;9.48;6.47;;;19.30;69.60;;;;;;5045134;28;20313;-68
2021/06/18 02:29:43;;;;;;;10.27;8.00;;;19.40;69.70;;;;;;5027195;28;20221;-68
2021/06/18 02:32:11;;;;;;;18.65;12.35;;;19.50;69.20;;;;;;5027117;28;20059;-67
2021/06/18 02:34:38;;;;;;;9.05;6.03;;;19.60;68.90;;;;;;5011826;28;20037;-67
2021/06/18 02:37:04;;;;;;;6.45;5.22;;;19.30;68.80;;;;;;5044067;28;20109;-67
2021/06/18 02:39:29;;;;;;;5.80;4.70;;;19.00;70.10;;;;;;5044339;28;20053;-67
2021/06/18 02:41:55;;;;;;;6.85;4.93;;;18.80;71.00;;;;;;5044309;28;20391;-69
2021/06/18 02:44:20;;;;;;;7.13;4.78;;;18.80;71.40;;;;;;5044395;28;20033;-68
2021/06/18 02:46:54;;;;;;;7.55;4.70;;;18.70;71.70;;;;;;5045341;28;20037;-68
2021/06/18 02:49:23;;;;;;;7.72;5.20;;;18.60;72.50;;;;;;5026958;28;20041;-68
2021/06/18 02:52:11;;;;;;;5.85;4.95;;;18.70;72.20;;;;;;5026992;28;20034;-68
2021/06/18 02:54:57;;;;;;;6.38;4.80;;;18.70;72.00;;;;;;5030221;28;20284;-68
2021/06/18 02:57:27;;;;;;;6.97;4.80;;;18.70;72.10;;;;;;5044273;28;20037;-68
2021/06/18 03:00:12;;;;;;;6.90;5.10;;;18.50;72.10;;;;;;5010809;28;20036;-68
2021/06/18 03:02:51;;;;;;;5.80;4.70;;;18.40;71.80;;;;;;5044385;28;20030;-68
2021/06/18 03:05:18;;;;;;;7.90;4.90;;;18.40;72.50;;;;;;5026507;28;20225;-67
2021/06/18 03:07:50;;;;;;;6.53;5.05;;;18.30;72.30;;;;;;5011240;28;20076;-68
2021/06/18 03:10:17;;;;;;;6.72;5.10;;;18.30;72.40;;;;;;5044403;28;20182;-68
2021/06/18 03:12:43;;;;;;;9.35;5.35;;;18.40;72.80;;;;;;5026583;28;20033;-68
2021/06/18 03:15:09;;;;;;;6.18;5.38;;;18.30;72.80;;;;;;5026427;28;20072;-67
2021/06/18 03:17:37;;;;;;;5.40;4.70;;;18.30;72.50;;;;;;5043935;28;20336;-67
2021/06/18 03:20:09;;;;;;;10.32;5.30;;;18.30;72.70;;;;;;5043910;28;20037;-67
2021/06/18 03:22:35;;;;;;;6.57;4.75;;;18.40;72.50;;;;;;5011380;28;20038;-68
2021/06/18 03:25:02;;;;;;;8.57;5.03;;;18.30;73.20;;;;;;5025914;28;20041;-68
2021/06/18 03:27:28;;;;;;;7.75;5.50;;;18.30;72.90;;;;;;5043600;28;20080;-67
2021/06/18 03:29:53;;;;;;;8.82;5.88;;;18.30;72.70;;;;;;5009865;28;20090;-69
2021/06/18 03:32:19;;;;;;;8.77;5.40;;;18.30;72.60;;;;;;5026165;28;20357;-67
2021/06/18 03:34:45;;;;;;;13.52;5.68;;;18.20;72.60;;;;;;5011045;28;20033;-69
2021/06/18 03:37:10;;;;;;;7.47;5.35;;;18.30;72.60;;;;;;5010214;28;20038;-71
2021/06/18 03:39:36;;;;;;;6.15;5.55;;;18.30;72.50;;;;;;5009651;28;20045;-67
2021/06/18 03:42:02;;;;;;;8.50;5.63;;;18.30;72.30;;;;;;5009793;28;20030;-66
2021/06/18 03:44:27;;;;;;;8.07;5.30;;;18.20;72.70;;;;;;5026114;28;20080;-69
2021/06/18 03:46:53;;;;;;;8.48;5.70;;;18.30;72.80;;;;;;5026977;28;20088;-68
2021/06/18 03:49:18;;;;;;;9.35;5.68;;;18.30;72.80;;;;;;5026213;28;20333;-68
2021/06/18 03:51:44;;;;;;;6.82;5.60;;;18.20;73.40;;;;;;5043745;28;20040;-67
2021/06/18 03:54:10;;;;;;;7.53;5.75;;;18.10;73.60;;;;;;5026138;28;20198;-68
2021/06/18 03:56:36;;;;;;;7.80;5.60;;;18.40;72.80;;;;;;5043375;28;20092;-67
2021/06/18 03:59:01;;;;;;;6.07;5.30;;;18.30;73.10;;;;;;5043254;28;20038;-68
2021/06/18 04:01:27;;;;;;;10.70;5.85;;;18.30;72.90;;;;;;5043828;28;20099;-67
2021/06/18 04:03:52;;;;;;;8.93;5.20;;;18.30;73.10;;;;;;5026010;28;20087;-69
2021/06/18 04:06:18;;;;;;;7.43;5.30;;;18.30;73.10;;;;;;5009812;28;20351;-67
2021/06/18 04:08:44;;;;;;;15.50;7.63;;;18.60;72.10;;;;;;5025751;28;20042;-68
2021/06/18 04:11:09;;;;;;;9.13;7.10;;;18.80;71.40;;;;;;5043433;28;20080;-67
2021/06/18 04:13:38;;;;;;;85.55;65.85;;;19.00;71.20;;;;;;5043754;28;20025;-69
2021/06/18 04:16:07;;;;;;;13.18;9.98;;;19.00;71.30;;;;;;5043411;28;20033;-69
2021/06/18 04:18:33;;;;;;;18.48;9.75;;;18.90;71.40;;;;;;5043461;28;20101;-69
2021/06/18 04:21:02;;;;;;;9.57;7.10;;;19.10;70.90;;;;;;5043633;28;20053;-70
2021/06/18 04:23:29;;;;;;;8.65;7.25;;;19.00;71.50;;;;;;5026188;28;20053;-68
2021/06/18 04:25:58;;;;;;;8.52;6.45;;;19.00;71.20;;;;;;5043508;28;20033;-66
2021/06/18 04:28:23;;;;;;;10.52;5.90;;;19.00;72.30;;;;;;5043123;28;20038;-67
2021/06/18 04:30:49;;;;;;;8.93;5.88;;;19.10;72.10;;;;;;5025677;28;20037;-69
2021/06/18 04:33:14;;;;;;;9.60;5.80;;;19.00;72.50;;;;;;5025754;28;20136;-67
2021/06/18 04:35:40;;;;;;;7.75;4.90;;;19.10;72.30;;;;;;5043285;28;20025;-69
2021/06/18 04:38:06;;;;;;;7.90;5.50;;;19.10;71.50;;;;;;5046505;28;20053;-70
2021/06/18 04:40:31;;;;;;;7.78;5.40;;;19.10;70.90;;;;;;5047057;28;20041;-69
2021/06/18 04:42:59;;;;;;;7.53;5.53;;;19.00;71.30;;;;;;5046746;28;20041;-70
2021/06/18 04:45:24;;;;;;;7.85;5.82;;;18.90;72.10;;;;;;5046890;28;20093;-69
2021/06/18 04:47:50;;;;;;;6.20;5.00;;;19.00;72.20;;;;;;5029016;28;20026;-71
2021/06/18 04:50:15;;;;;;;8.07;5.43;;;19.10;72.20;;;;;;5046393;28;20353;-69
2021/06/18 04:52:42;;;;;;;7.45;5.55;;;19.10;72.30;;;;;;5046971;28;20036;-69
2021/06/18 04:55:11;;;;;;;10.05;5.72;;;19.20;72.50;;;;;;5029449;28;20091;-68
2021/06/18 04:57:36;;;;;;;6.15;5.20;;;19.30;71.90;;;;;;5046283;28;20044;-67
2021/06/18 05:00:03;;;;;;;10.52;5.45;;;19.30;72.20;;;;;;5028655;28;20029;-67
2021/06/18 05:02:28;;;;;;;10.05;5.47;;;19.30;72.00;;;;;;5046388;28;20033;-66
2021/06/18 05:04:54;;;;;;;8.70;5.22;;;19.40;71.40;;;;;;5047006;28;20267;-67
2021/06/18 05:07:20;;;;;;;9.25;5.70;;;19.40;71.50;;;;;;5046736;28;20037;-67
2021/06/18 05:09:45;;;;;;;8.00;5.65;;;19.50;71.30;;;;;;5046091;28;20076;-66
2021/06/18 05:12:11;;;;;;;10.38;5.88;;;19.50;71.00;;;;;;5046131;28;20174;-67
2021/06/18 05:14:36;;;;;;;7.22;5.63;;;19.60;70.80;;;;;;5046152;28;20037;-67
2021/06/18 05:17:02;;;;;;;8.43;5.93;;;19.70;70.30;;;;;;5045966;28;20029;-67
2021/06/18 05:19:28;;;;;;;6.80;5.68;;;19.70;70.40;;;;;;5046677;28;20250;-67
2021/06/18 05:21:53;;;;;;;9.45;5.82;;;19.80;69.70;;;;;;5046343;28;20057;-69
2021/06/18 05:24:19;;;;;;;8.48;5.50;;;19.90;69.50;;;;;;5046045;28;20033;-67
2021/06/18 05:26:44;;;;;;;7.82;5.78;;;19.90;69.40;;;;;;5045620;28;20034;-67
2021/06/18 05:29:10;;;;;;;9.73;5.55;;;20.00;68.80;;;;;;5046015;28;20025;-67
2021/06/18 05:31:35;;;;;;;7.93;5.63;;;20.00;68.70;;;;;;5046878;28;20029;-67
2021/06/18 05:34:01;;;;;;;10.10;5.65;;;20.10;68.70;;;;;;5046126;28;20030;-68
2021/06/18 05:36:26;;;;;;;10.93;5.30;;;20.20;68.30;;;;;;5045659;28;20040;-68
2021/06/18 05:38:52;;;;;;;7.85;5.13;;;20.30;68.00;;;;;;5045552;28;20049;-68
2021/06/18 05:41:18;;;;;;;6.88;5.18;;;20.30;67.60;;;;;;5045189;28;20329;-68
2021/06/18 05:43:43;;;;;;;6.57;4.95;;;20.40;67.50;;;;;;5045969;28;20025;-68
2021/06/18 05:46:09;;;;;;;15.52;11.90;;;20.40;67.60;;;;;;5028299;28;20030;-68
2021/06/18 05:48:34;;;;;;;57.13;39.20;;;20.50;67.40;;;;;;5044654;28;20047;-69
2021/06/18 05:51:00;;;;;;;100.68;75.68;;;20.60;67.40;;;;;;5045382;28;20033;-68
2021/06/18 05:53:26;;;;;;;29.20;21.63;;;20.60;67.30;;;;;;5045322;28;20400;-66
2021/06/18 05:55:51;;;;;;;22.13;10.35;;;20.70;67.30;;;;;;5046029;28;20078;-68
2021/06/18 05:58:17;;;;;;;11.27;6.50;;;20.80;66.90;;;;;;5045178;28;20380;-68
2021/06/18 06:00:42;;;;;;;10.10;5.57;;;20.80;66.60;;;;;;5045226;28;20030;-68
2021/06/18 06:03:09;;;;;;;9.77;5.80;;;20.90;66.20;;;;;;5045571;28;20056;-69
2021/06/18 06:05:34;;;;;;;9.30;5.50;;;21.00;66.00;;;;;;5045176;28;20036;-70
2021/06/18 06:08:00;;;;;;;9.93;6.07;;;21.00;66.10;;;;;;5045096;28;20030;-69
2021/06/18 06:10:25;;;;;;;6.90;5.70;;;21.10;65.80;;;;;;5045355;28;20029;-69
2021/06/18 06:12:51;;;;;;;7.60;5.47;;;21.10;65.60;;;;;;5045651;28;20036;-69
2021/06/18 06:15:16;;;;;;;11.57;5.20;;;21.20;65.30;;;;;;5045180;28;20194;-69
2021/06/18 06:17:44;;;;;;;8.02;5.40;;;21.30;65.20;;;;;;5044923;28;20055;-68
2021/06/18 06:20:10;;;;;;;10.00;5.78;;;21.30;65.30;;;;;;5044652;28;20079;-69
2021/06/18 06:22:35;;;;;;;9.73;5.63;;;21.40;65.00;;;;;;5027546;28;20067;-68
2021/06/18 06:25:01;;;;;;;7.43;5.30;;;21.50;64.30;;;;;;5044987;28;20033;-69
2021/06/18 06:27:26;;;;;;;8.70;5.57;;;21.60;63.90;;;;;;5045084;28;20382;-68
2021/06/18 06:29:52;;;;;;;8.85;5.22;;;21.60;63.30;;;;;;5044766;28;20045;-68
2021/06/18 06:33:43;;;;;;;7.85;5.45;;;21.80;61.80;;;;;;5133200;27;20590;-45
2021/06/18 06:36:09;;;;;;;8.38;5.47;;;22.50;60.40;;;;;;5132599;27;20084;-47
2021/06/18 06:38:35;;;;;;;10.05;5.25;;;22.30;60.90;;;;;;5142422;27;20100;-45
2021/06/18 06:41:01;;;;;;;9.95;5.20;;;22.30;60.40;;;;;;5142291;27;20100;-47
2021/06/18 06:43:26;;;;;;;7.13;4.85;;;22.30;60.80;;;;;;5143015;28;20099;-46
2021/06/18 06:45:52;;;;;;;10.82;5.07;;;22.30;60.60;;;;;;5140908;28;20367;-47
2021/06/18 06:48:17;;;;;;;12.85;5.10;;;22.40;61.00;;;;;;5140997;28;20047;-48
2021/06/18 06:50:43;;;;;;;11.20;5.55;;;22.50;61.00;;;;;;5142174;27;20027;-46
2021/06/18 06:53:09;;;;;;;9.95;5.35;;;22.50;61.00;;;;;;5141666;27;20032;-46
2021/06/18 06:55:35;;;;;;;9.25;5.10;;;22.60;61.00;;;;;;5141478;28;20340;-47
2021/06/18 06:58:00;;;;;;;9.48;5.13;;;22.70;60.00;;;;;;5142153;27;20084;-46
2021/06/18 07:00:26;;;;;;;8.20;5.10;;;22.80;60.00;;;;;;5142133;27;20032;-46
2021/06/18 07:02:52;;;;;;;15.52;5.40;;;22.90;60.80;;;;;;5141744;27;20044;-48
2021/06/18 07:05:18;;;;;;;10.98;5.10;;;23.00;62.70;;;;;;5142086;27;20032;-47
2021/06/18 07:07:43;;;;;;;8.20;4.90;;;23.10;62.10;;;;;;5142480;28;20038;-46
2021/06/18 07:10:09;;;;;;;8.13;5.07;;;23.10;63.30;;;;;;5142340;27;20058;-47
2021/06/18 07:12:35;;;;;;;9.05;5.25;;;23.20;61.40;;;;;;5142164;27;20140;-47
2021/06/18 07:15:00;;;;;;;8.13;5.13;;;23.40;60.40;;;;;;5141661;27;20334;-47
2021/06/18 07:17:26;;;;;;;9.82;5.28;;;23.50;58.80;;;;;;5142075;27;20027;-47
2021/06/18 07:19:53;;;;;;;10.07;4.97;;;23.60;59.30;;;;;;5143173;28;20023;-46
2021/06/18 07:22:21;;;;;;;9.45;4.93;;;23.60;60.00;;;;;;5140683;28;20350;-47
2021/06/18 07:24:47;;;;;;;7.22;5.35;;;23.70;61.50;;;;;;5141338;27;20265;-47
2021/06/18 07:27:13;;;;;;;9.02;4.70;;;23.80;59.60;;;;;;5141519;27;20027;-51
2021/06/18 07:29:40;;;;;;;8.90;5.40;;;23.80;59.40;;;;;;5141344;27;20055;-49
2021/06/18 07:32:06;;;;;;;11.00;5.18;;;23.80;58.70;;;;;;5141227;27;20437;-47
2021/06/18 07:34:31;;;;;;;10.77;5.07;;;23.90;59.20;;;;;;5142030;28;20062;-48
2021/06/18 07:36:57;;;;;;;11.40;5.68;;;24.10;57.90;;;;;;5141687;27;20036;-47
2021/06/18 07:39:22;;;;;;;9.15;5.10;;;24.30;59.30;;;;;;5141410;27;20188;-46
2021/06/18 07:41:48;;;;;;;7.38;5.15;;;24.30;59.20;;;;;;5141241;27;20043;-49
2021/06/18 07:44:13;;;;;;;12.20;4.95;;;24.40;58.80;;;;;;5132482;28;20035;-51
2021/06/18 07:46:39;;;;;;;14.20;5.65;;;24.50;60.30;;;;;;5128056;28;20072;-50
2021/06/18 07:49:04;;;;;;;9.75;5.45;;;24.80;61.20;;;;;;5127706;28;20031;-46
2021/06/18 07:51:30;;;;;;;16.17;6.13;;;24.80;58.10;;;;;;5127560;28;20215;-44
2021/06/18 07:53:55;;;;;;;11.50;5.50;;;25.00;62.80;;;;;;5109443;28;20249;-44
2021/06/18 07:56:25;;;;;;;7.45;4.88;;;25.10;58.80;;;;;;5127459;28;20046;-46
2021/06/18 07:58:51;;;;;;;24.10;14.65;;;25.20;57.30;;;;;;5126489;28;20049;-44
2021/06/18 08:01:16;;;;;;;40.60;25.98;;;25.20;56.80;;;;;;5109343;28;20265;-47
2021/06/18 08:03:42;;;;;;;15.93;7.20;;;25.20;57.10;;;;;;5126049;28;20040;-44
2021/06/18 08:06:08;;;;;;;14.13;4.95;;;25.40;56.30;;;;;;5126776;28;20440;-51
2021/06/18 08:08:33;;;;;;;10.65;6.00;;;25.50;53.70;;;;;;5126884;28;20057;-49
2021/06/18 08:10:59;;;;;;;9.10;4.78;;;25.60;54.30;;;;;;5126705;28;20278;-49
2021/06/18 08:13:24;;;;;;;8.38;5.20;;;25.80;59.20;;;;;;5127219;28;20019;-53
2021/06/18 08:15:50;;;;;;;11.30;5.32;;;25.80;58.70;;;;;;5127022;28;20031;-49
2021/06/18 08:18:15;;;;;;;11.02;5.35;;;25.80;56.70;;;;;;5126785;28;20045;-53
2021/06/18 08:20:42;;;;;;;12.43;5.20;;;26.00;57.10;;;;;;5126587;27;20341;-47
2021/06/18 08:23:07;;;;;;;9.18;5.57;;;26.10;55.50;;;;;;5118215;28;20088;-55
2021/06/18 08:25:33;;;;;;;9.15;5.22;;;26.20;55.90;;;;;;5127289;28;20215;-47
2021/06/18 08:27:58;;;;;;;14.52;5.53;;;26.20;56.60;;;;;;5126630;28;20084;-52
2021/06/18 08:30:24;;;;;;;11.75;5.15;;;26.30;55.00;;;;;;5126709;28;20038;-47
2021/06/18 08:32:50;;;;;;;11.10;5.35;;;26.50;53.10;;;;;;5126408;28;20222;-48
2021/06/18 08:38:57;;;;;;;105.25;74.65;;;26.80;56.00;;;;;;5126705;28;20211;-51
2021/06/18 08:41:22;;;;;;;69.45;53.55;;;26.80;55.30;;;;;;5125984;28;20023;-49
2021/06/18 08:43:48;;;;;;;19.50;11.27;;;26.80;51.00;;;;;;5125538;28;20047;-53
2021/06/18 08:46:14;;;;;;;17.02;6.00;;;26.80;50.40;;;;;;5125451;28;20038;-57
2021/06/18 08:48:39;;;;;;;10.70;5.80;;;27.00;49.20;;;;;;5126371;28;20027;-58
2021/06/18 08:51:05;;;;;;;10.65;5.22;;;27.10;51.20;;;;;;5126127;27;20077;-57
2021/06/18 08:53:34;;;;;;;13.52;5.38;;;27.30;50.00;;;;;;5126660;28;20077;-56
2021/06/18 08:55:59;;;;;;;8.55;5.10;;;27.40;48.50;;;;;;5125238;28;20055;-52
2021/06/18 08:58:25;;;;;;;8.05;5.07;;;27.60;46.80;;;;;;5126338;28;20031;-57
2021/06/18 09:00:51;;;;;;;10.93;5.53;;;27.70;48.10;;;;;;5125877;28;20134;-55
2021/06/18 09:03:36;;;;;;;11.57;5.55;;;27.80;48.20;;;;;;5125943;28;20342;-55
2021/06/18 09:06:28;;;;;;;13.23;5.57;;;27.70;48.70;;;;;;5124876;28;20343;-47
2021/06/18 09:09:27;;;;;;;13.63;5.30;;;27.70;48.10;;;;;;5125721;28;20084;-47
2021/06/18 09:11:54;;;;;;;11.13;5.28;;;27.80;46.10;;;;;;5113781;27;20031;-44
2021/06/18 09:18:19;;;;;;;9.90;4.85;;;27.90;46.50;;;;;;5125975;28;20015;-47
2021/06/18 09:20:45;;;;;;;17.30;5.80;;;28.20;48.60;;;;;;5125526;28;20096;-46
2021/06/18 09:23:24;;;;;;;16.63;5.78;;;28.30;51.90;;;;;;5125885;28;20211;-46
2021/06/18 09:26:12;;;;;;;8.00;5.00;;;28.20;48.50;;;;;;5126198;28;20038;-44
2021/06/18 09:29:12;;;;;;;11.43;5.03;;;28.20;46.60;;;;;;5125000;28;20290;-46
2021/06/18 09:31:48;;;;;;;9.05;5.13;;;28.30;46.60;;;;;;5125664;28;20052;-47
2021/06/18 09:34:31;;;;;;;15.02;5.80;;;28.30;44.60;;;;;;5125871;28;20273;-45
2021/06/18 09:37:13;;;;;;;10.27;5.35;;;28.40;44.10;;;;;;5124689;28;20032;-45
2021/06/18 09:40:10;;;;;;;8.18;4.90;;;28.40;43.50;;;;;;5124035;28;20032;-46
2021/06/18 09:42:59;;;;;;;13.57;5.18;;;28.50;46.20;;;;;;5125290;28;20038;-47
2021/06/18 09:45:26;;;;;;;13.05;5.32;;;28.60;46.20;;;;;;5121956;27;20031;-47
2021/06/18 09:47:52;;;;;;;10.02;5.30;;;28.90;47.30;;;;;;5125125;28;20036;-49
2021/06/18 09:54:17;;;;;;;9.05;5.13;;;29.20;43.60;;;;;;5125436;28;20037;-52
2021/06/18 09:56:43;;;;;;;13.27;5.30;;;29.30;42.90;;;;;;5124105;28;20222;-47
2021/06/18 09:59:20;;;;;;;9.10;5.55;;;29.40;43.10;;;;;;5125628;28;20076;-48
2021/06/18 10:01:53;;;;;;;8.45;5.15;;;29.60;42.60;;;;;;5125280;28;20040;-48
2021/06/18 10:04:19;;;;;;;12.55;5.40;;;29.80;44.80;;;;;;5125378;28;20032;-49
2021/06/18 10:06:45;;;;;;;9.70;6.00;;;30.10;43.80;;;;;;5124834;28;20057;-51
2021/06/18 10:09:11;;;;;;;10.60;5.18;;;30.20;43.30;;;;;;5123264;28;20276;-51
2021/06/18 10:11:39;;;;;;;11.85;5.82;;;30.40;44.10;;;;;;5124430;28;20042;-52
2021/06/18 10:14:05;;;;;;;10.60;5.20;;;30.70;44.00;;;;;;5124802;28;20042;-47
2021/06/18 10:16:31;;;;;;;12.07;5.60;;;30.80;42.40;;;;;;5124352;28;20036;-47
2021/06/18 10:18:57;;;;;;;10.30;5.35;;;30.80;43.10;;;;;;5123605;28;20096;-47
2021/06/18 10:21:22;;;;;;;12.30;5.45;;;30.80;42.30;;;;;;5124312;28;20046;-49
2021/06/18 10:23:49;;;;;;;11.68;5.45;;;30.70;40.60;;;;;;5123080;28;20035;-56
2021/06/18 10:29:56;;;;;;;16.00;4.90;;;30.70;39.40;;;;;;5124958;28;20088;-56
2021/06/18 10:32:29;;;;;;;9.48;4.70;;;30.90;39.80;;;;;;5123398;28;20266;-57
2021/06/18 10:34:56;;;;;;;16.30;5.10;;;30.90;40.50;;;;;;5125121;28;20095;-56
2021/06/18 10:37:25;;;;;;;15.95;4.68;;;31.00;38.40;;;;;;5124773;28;20055;-58
2021/06/18 10:40:08;;;;;;;9.17;4.80;;;31.00;39.70;;;;;;5124636;28;20042;-57
2021/06/18 10:42:34;;;;;;;8.05;4.45;;;31.00;40.90;;;;;;5123265;28;20326;-55
2021/06/18 10:45:00;;;;;;;9.23;4.80;;;31.20;40.90;;;;;;5124080;28;20036;-56
2021/06/18 10:47:30;;;;;;;6.00;4.47;;;31.10;40.50;;;;;;5123965;28;20123;-53
2021/06/18 10:49:56;;;;;;;12.13;4.95;;;31.10;40.60;;;;;;5125476;28;20024;-56
2021/06/18 10:52:23;;;;;;;8.73;4.95;;;31.00;39.50;;;;;;5124981;28;20258;-56
2021/06/18 10:54:53;;;;;;;10.70;4.78;;;31.20;37.80;;;;;;5124563;28;20035;-56
2021/06/18 10:57:20;;;;;;;8.65;4.43;;;31.30;39.10;;;;;;5123328;28;20056;-54
2021/06/18 10:59:46;;;;;;;10.38;4.50;;;31.20;39.20;;;;;;5122899;28;20031;-56
2021/06/18 11:05:53;;;;;;;10.93;4.65;;;31.40;37.60;;;;;;5124595;28;20337;-55
2021/06/18 11:08:20;;;;;;;6.15;4.20;;;31.50;38.70;;;;;;5124172;28;20031;-55
2021/06/18 11:10:46;;;;;;;5.88;4.22;;;31.40;39.30;;;;;;5124756;28;20027;-55
2021/06/18 11:13:12;;;;;;;9.50;4.30;;;31.40;39.30;;;;;;5124516;28;20323;-58
2021/06/18 11:15:42;;;;;;;9.18;4.95;;;31.40;38.90;;;;;;5105905;28;20086;-55
2021/06/18 11:18:19;;;;;;;6.90;4.50;;;31.50;37.90;;;;;;5124206;28;20047;-57
2021/06/18 11:20:50;;;;;;;8.02;4.32;;;31.50;36.80;;;;;;5092806;28;20039;-49
2021/06/18 11:27:32;;;;;;;9.57;4.22;;;32.20;34.90;;;;;;5128163;28;20050;-49
2021/06/18 11:30:26;;;;;;;5.93;4.28;;;32.10;35.10;;;;;;5105076;28;20036;-48
2021/06/18 11:32:52;;;;;;;9.10;4.20;;;32.20;37.90;;;;;;5127550;28;20253;-47
2021/06/18 11:38:59;;;;;;;11.77;4.10;;;32.60;36.80;;;;;;5127894;28;20015;-57
2021/06/18 11:41:29;;;;;;;14.27;4.63;;;32.60;35.60;;;;;;5127359;28;20031;-57
2021/06/18 11:43:56;;;;;;;7.60;4.10;;;32.50;35.80;;;;;;5127096;28;20334;-57
2021/06/18 11:46:23;;;;;;;6.88;4.00;;;32.40;36.80;;;;;;5126892;28;20040;-57
2021/06/18 11:48:49;;;;;;;10.93;4.35;;;32.50;35.20;;;;;;5127787;28;20036;-53
2021/06/18 11:51:28;;;;;;;8.50;3.67;;;32.30;35.10;;;;;;5127383;28;20342;-49
2021/06/18 11:53:54;;;;;;;9.10;4.13;;;32.30;36.20;;;;;;5127460;28;20282;-49
2021/06/18 11:56:19;;;;;;;8.23;4.07;;;32.30;34.40;;;;;;5127335;28;20027;-48
2021/06/18 11:58:46;;;;;;;11.00;4.25;;;32.30;35.60;;;;;;5127708;28;20034;-46
2021/06/18 12:01:12;;;;;;;10.50;4.30;;;32.40;33.60;;;;;;5127272;28;20047;-56
2021/06/18 12:03:38;;;;;;;8.88;5.30;;;32.50;34.20;;;;;;5127991;28;20047;-48
2021/06/18 12:06:20;;;;;;;7.65;4.40;;;32.70;36.40;;;;;;5127355;28;20357;-47
2021/06/18 12:09:04;;;;;;;43.25;30.42;;;32.80;33.30;;;;;;5127268;28;20035;-45
2021/06/18 12:11:31;;;;;;;21.48;17.13;;;32.80;34.30;;;;;;5127194;28;20092;-44
2021/06/18 12:13:56;;;;;;;13.00;7.47;;;32.80;32.70;;;;;;5127699;28;20086;-50
2021/06/18 12:16:29;;;;;;;66.95;31.02;;;32.80;33.70;;;;;;5127668;28;20133;-52
2021/06/18 12:18:56;;;;;;;55.78;29.65;;;32.70;34.90;;;;;;5125795;28;20080;-53
2021/06/18 12:21:28;;;;;;;28.33;15.00;;;32.70;36.20;;;;;;5125388;28;20039;-50
2021/06/18 12:24:03;;;;;;;37.55;20.35;;;32.70;37.20;;;;;;5126480;28;20032;-52
2021/06/18 12:26:29;;;;;;;24.17;13.10;;;32.70;33.70;;;;;;5124916;28;20788;-54
2021/06/18 12:28:54;;;;;;;51.28;28.35;;;32.60;34.30;;;;;;5127090;28;20051;-55
2021/06/18 12:31:20;;;;;;;71.80;33.67;;;32.70;35.80;;;;;;5125637;28;20036;-45
2021/06/18 12:33:45;;;;;;;29.92;18.40;;;32.70;37.00;;;;;;5091650;28;20234;-44
2021/06/18 12:36:19;;;;;;;31.77;17.02;;;32.80;38.20;;;;;;5126975;28;20080;-48
2021/06/18 12:38:46;;;;;;;41.03;29.88;;;33.00;37.50;;;;;;5126712;28;20203;-49
2021/06/18 12:45:07;;;;;;;31.05;19.73;;;32.90;36.80;;;;;;5126682;28;20023;-44
2021/06/18 12:47:32;;;;;;;49.75;36.33;;;32.90;37.10;;;;;;5125464;28;20072;-47
2021/06/18 12:49:58;;;;;;;20.23;16.48;;;32.70;36.40;;;;;;5126194;28;20032;-44
2021/06/18 12:52:24;;;;;;;14.02;7.25;;;32.80;36.30;;;;;;5126596;28;20134;-45
2021/06/18 12:54:49;;;;;;;7.72;4.60;;;32.80;36.80;;;;;;5126321;28;20149;-48
2021/06/18 12:57:25;;;;;;;10.27;4.80;;;32.80;37.50;;;;;;5125299;28;20035;-45
2021/06/18 13:00:10;;;;;;;9.32;4.00;;;32.90;35.60;;;;;;5125070;28;20081;-55
2021/06/18 13:02:44;;;;;;;11.43;4.00;;;33.00;36.30;;;;;;5126126;28;20110;-44
2021/06/18 13:05:13;;;;;;;7.80;4.80;;;33.00;35.10;;;;;;5126385;28;20032;-44
2021/06/18 13:07:39;;;;;;;8.13;4.88;;;32.90;34.20;;;;;;5126131;28;20342;-46
2021/06/18 13:10:05;;;;;;;7.28;3.80;;;33.00;36.20;;;;;;5124895;28;20036;-46
2021/06/18 13:12:30;;;;;;;13.15;4.18;;;32.80;34.20;;;;;;5126393;28;20039;-47
2021/06/18 13:14:58;;;;;;;7.45;3.85;;;32.80;37.10;;;;;;5125485;28;20032;-44
2021/06/18 13:17:24;;;;;;;9.82;4.20;;;32.70;34.50;;;;;;5126002;28;20083;-44
2021/06/18 13:19:51;;;;;;;9.23;4.00;;;32.90;34.70;;;;;;5126074;28;20030;-46